createdAt,value
2022-11-28T00:02:00.563Z,20.15
2022-11-28T00:04:31.521Z,19.16
2022-11-28T00:07:02.280Z,19.11
2022-11-28T00:09:33.377Z,19.18
2022-11-28T00:12:04.531Z,19.73
2022-11-28T00:14:35.285Z,19.82
2022-11-28T00:17:06.444Z,19.97
2022-11-28T00:19:37.648Z,19.74
2022-11-28T00:22:08.629Z,19.89
2022-11-28T00:24:40.240Z,20.22
2022-11-28T00:27:11.814Z,20.20
2022-11-28T00:29:42.939Z,19.82
2022-11-28T00:32:14.351Z,19.68
2022-11-28T00:34:45.130Z,19.31
2022-11-28T00:37:16.525Z,19.09
2022-11-28T00:39:47.456Z,19.04
2022-11-28T00:42:22.080Z,19.20
2022-11-28T00:44:53.011Z,19.39
2022-11-28T00:47:23.981Z,19.90
2022-11-28T00:49:54.971Z,19.85
2022-11-28T00:52:25.873Z,20.76
2022-11-28T00:54:57.166Z,20.53
2022-11-28T00:57:28.097Z,20.88
2022-11-28T00:59:59.083Z,20.36
2022-11-28T01:02:30.790Z,20.11
2022-11-28T01:05:03.029Z,19.68
2022-11-28T01:07:35.812Z,19.94
2022-11-28T01:10:07.608Z,20.58
2022-11-28T01:12:38.627Z,20.35
2022-11-28T01:15:12.417Z,20.44
2022-11-28T01:17:43.539Z,20.52
2022-11-28T01:20:15.235Z,20.25
2022-11-28T01:22:46.342Z,20.69
2022-11-28T01:25:17.677Z,20.58
2022-11-28T01:27:48.821Z,20.16
2022-11-28T01:30:20.075Z,20.00
2022-11-28T01:32:51.042Z,20.12
2022-11-28T01:35:22.264Z,19.95
2022-11-28T01:37:53.754Z,20.05
2022-11-28T01:40:24.732Z,20.22
2022-11-28T01:42:55.609Z,20.33
2022-11-28T01:45:32.777Z,20.49
2022-11-28T01:48:05.444Z,20.16
2022-11-28T01:50:37.592Z,20.79
2022-11-28T01:53:11.463Z,21.08
2022-11-28T01:55:54.809Z,20.91
2022-11-28T01:58:26.999Z,21.49
2022-11-28T02:00:57.967Z,21.78
2022-11-28T02:03:36.010Z,20.95
2022-11-28T02:06:07.226Z,20.45
2022-11-28T02:08:39.259Z,20.77
2022-11-28T02:11:14.725Z,21.09
2022-11-28T02:14:13.067Z,21.72
2022-11-28T02:17:14.247Z,22.50
2022-11-28T02:20:06.394Z,21.99
2022-11-28T02:23:01.437Z,22.38
2022-11-28T02:26:00.627Z,22.45
2022-11-28T02:28:51.708Z,22.08
2022-11-28T02:31:37.303Z,22.17
2022-11-28T02:34:34.945Z,21.79
2022-11-28T02:37:16.903Z,21.46
2022-11-28T02:39:57.610Z,21.05
2022-11-28T02:42:45.701Z,20.65
2022-11-28T02:45:26.317Z,21.12
2022-11-28T02:48:15.211Z,21.91
2022-11-28T02:51:09.941Z,21.80
2022-11-28T02:53:41.835Z,21.70
2022-11-28T02:56:13.731Z,20.62
2022-11-28T02:58:44.758Z,21.40
2022-11-28T03:01:21.951Z,21.37
2022-11-28T03:03:59.365Z,22.19
2022-11-28T03:06:51.228Z,21.95
2022-11-28T03:09:46.569Z,21.95
2022-11-28T03:12:30.584Z,22.07
2022-11-28T03:15:07.222Z,21.40
2022-11-28T03:17:59.329Z,21.76
2022-11-28T03:20:50.169Z,21.23
2022-11-28T03:23:45.150Z,21.56
2022-11-28T03:26:38.709Z,21.52
2022-11-28T03:29:30.723Z,21.43
2022-11-28T03:32:03.119Z,21.84
2022-11-28T03:34:45.923Z,21.74
2022-11-28T03:37:29.217Z,22.39
2022-11-28T03:40:05.331Z,21.67
2022-11-28T03:42:41.172Z,22.57
2022-11-28T03:45:24.848Z,21.87
2022-11-28T03:48:03.109Z,22.40
2022-11-28T03:50:44.233Z,22.32
2022-11-28T03:53:20.986Z,21.81
2022-11-28T03:56:00.043Z,22.13
2022-11-28T03:58:40.771Z,21.60
2022-11-28T04:01:41.818Z,21.97
2022-11-28T04:04:22.264Z,21.58
2022-11-28T04:06:57.837Z,21.20
2022-11-28T04:09:42.923Z,20.97
2022-11-28T04:12:32.040Z,21.28
2022-11-28T04:15:13.906Z,22.26
2022-11-28T04:18:00.189Z,20.76
2022-11-28T04:20:55.598Z,21.58
2022-11-28T04:23:27.263Z,21.36
2022-11-28T04:26:00.214Z,22.04
2022-11-28T04:28:33.899Z,21.67
2022-11-28T04:31:07.402Z,21.85
2022-11-28T04:33:41.891Z,20.81
2022-11-28T04:36:14.140Z,21.79
2022-11-28T04:38:50.885Z,21.40
2022-11-28T04:41:44.604Z,21.41
2022-11-28T04:44:27.541Z,21.05
2022-11-28T04:46:59.553Z,21.30
2022-11-28T04:49:29.940Z,21.00
2022-11-28T04:52:06.940Z,21.47
2022-11-28T04:54:40.773Z,20.81
2022-11-28T04:57:29.202Z,20.57
2022-11-28T05:00:02.616Z,20.83
2022-11-28T05:02:34.766Z,20.30
2022-11-28T05:05:17.626Z,19.84
2022-11-28T05:07:48.977Z,19.59
2022-11-28T05:10:20.805Z,19.48
2022-11-28T05:12:51.952Z,19.50
2022-11-28T05:15:22.969Z,19.61
2022-11-28T05:17:54.174Z,19.42
2022-11-28T05:20:25.090Z,19.55
2022-11-28T05:22:56.198Z,19.90
2022-11-28T05:25:26.988Z,20.14
2022-11-28T05:27:58.103Z,19.74
2022-11-28T05:30:28.876Z,20.18
2022-11-28T05:33:01.375Z,21.01
2022-11-28T05:35:32.180Z,20.21
2022-11-28T05:38:03.443Z,20.00
2022-11-28T05:40:34.232Z,19.75
2022-11-28T05:43:05.606Z,19.76
2022-11-28T05:45:36.574Z,19.80
2022-11-28T05:48:07.904Z,20.16
2022-11-28T05:50:41.790Z,19.96
2022-11-28T05:53:13.315Z,19.26
2022-11-28T05:55:44.109Z,19.29
2022-11-28T05:58:14.842Z,18.71
2022-11-28T06:00:45.867Z,18.59
2022-11-28T06:03:16.981Z,18.52
2022-11-28T06:05:48.287Z,18.18
2022-11-28T06:08:19.295Z,18.57
2022-11-28T06:11:01.444Z,18.47
2022-11-28T06:13:32.212Z,18.31
2022-11-28T06:16:03.198Z,18.50
2022-11-28T06:18:34.155Z,18.22
2022-11-28T06:21:06.413Z,18.02
2022-11-28T06:23:37.985Z,18.08
2022-11-28T06:26:10.654Z,18.19
2022-11-28T06:28:42.500Z,18.06
2022-11-28T06:31:13.638Z,18.14
2022-11-28T06:33:44.865Z,17.83
2022-11-28T06:36:17.477Z,17.99
2022-11-28T06:38:48.956Z,17.91
2022-11-28T06:41:21.484Z,17.67
2022-11-28T06:43:53.372Z,17.58
2022-11-28T06:46:24.748Z,17.52
2022-11-28T06:48:55.831Z,17.85
2022-11-28T06:51:27.003Z,17.64
2022-11-28T06:53:58.047Z,17.70
2022-11-28T06:56:29.028Z,17.40
2022-11-28T06:59:01.660Z,17.34
2022-11-28T07:01:33.913Z,17.37
2022-11-28T07:04:04.760Z,17.29
2022-11-28T07:06:36.428Z,17.47
2022-11-28T07:09:07.286Z,17.16
2022-11-28T07:11:38.120Z,16.92
2022-11-28T07:14:09.255Z,16.96
2022-11-28T07:16:40.741Z,16.66
2022-11-28T07:19:14.445Z,16.79
2022-11-28T07:21:45.623Z,16.62
2022-11-28T07:24:16.525Z,16.60
2022-11-28T07:26:48.894Z,16.31
2022-11-28T07:29:21.221Z,16.33
2022-11-28T07:31:52.411Z,16.24
2022-11-28T07:34:23.378Z,16.13
2022-11-28T07:36:54.082Z,16.13
2022-11-28T07:39:25.344Z,16.21
2022-11-28T07:41:56.410Z,16.16
2022-11-28T07:44:27.570Z,16.14
2022-11-28T07:46:58.674Z,15.96
2022-11-28T07:49:30.009Z,16.03
2022-11-28T07:52:01.044Z,15.99
2022-11-28T07:54:31.791Z,15.87
2022-11-28T07:57:17.972Z,15.79
2022-11-28T07:59:48.757Z,15.72
2022-11-28T08:02:20.298Z,15.67
2022-11-28T08:04:55.156Z,15.59
2022-11-28T08:07:26.426Z,15.58
2022-11-28T08:09:57.348Z,15.71
2022-11-28T08:12:28.126Z,15.57
2022-11-28T08:15:00.018Z,15.47
2022-11-28T08:17:31.777Z,15.58
2022-11-28T08:20:02.693Z,15.56
2022-11-28T08:22:33.701Z,15.48
2022-11-28T08:25:04.938Z,15.37
2022-11-28T08:27:36.364Z,15.45
2022-11-28T08:30:08.419Z,15.39
2022-11-28T08:32:39.681Z,15.27
2022-11-28T08:35:11.140Z,15.32
2022-11-28T08:37:42.093Z,15.21
2022-11-28T08:40:13.496Z,15.26
2022-11-28T08:42:44.972Z,15.27
2022-11-28T08:45:17.585Z,15.31
2022-11-28T08:47:48.865Z,15.24
2022-11-28T08:50:20.047Z,15.23
2022-11-28T08:52:51.478Z,14.96
2022-11-28T08:55:31.720Z,15.05
2022-11-28T08:58:03.452Z,14.91
2022-11-28T09:00:35.162Z,14.97
2022-11-28T09:03:06.981Z,14.78
2022-11-28T09:05:37.947Z,14.70
2022-11-28T09:08:11.653Z,14.81
2022-11-28T09:10:44.072Z,14.65
2022-11-28T09:13:17.242Z,14.75
2022-11-28T09:15:52.532Z,14.72
2022-11-28T09:18:24.642Z,14.68
2022-11-28T09:21:08.997Z,14.71
2022-11-28T09:23:42.513Z,14.57
2022-11-28T09:26:19.436Z,14.54
2022-11-28T09:28:50.377Z,14.40
2022-11-28T09:31:22.305Z,14.36
2022-11-28T09:33:53.454Z,14.21
2022-11-28T09:36:26.013Z,14.22
2022-11-28T09:38:57.001Z,14.04
2022-11-28T09:42:06.109Z,14.06
2022-11-28T09:44:39.884Z,13.97
2022-11-28T09:47:38.276Z,13.95
2022-11-28T09:50:23.196Z,13.92
2022-11-28T09:53:24.206Z,13.96
2022-11-28T09:55:57.100Z,13.91
2022-11-28T09:58:43.212Z,14.17
2022-11-28T10:01:26.814Z,14.15
2022-11-28T10:04:19.145Z,13.99
2022-11-28T10:06:59.515Z,14.15
2022-11-28T10:09:33.062Z,14.51
2022-11-28T10:12:49.255Z,14.47
2022-11-28T10:15:42.316Z,14.44
2022-11-28T10:18:39.694Z,14.55
2022-11-28T10:21:38.361Z,14.57
2022-11-28T10:24:23.621Z,14.53
2022-11-28T10:26:58.135Z,14.61
2022-11-28T10:29:35.760Z,14.53
2022-11-28T10:32:07.314Z,14.34
2022-11-28T10:34:45.164Z,14.36
2022-11-28T10:37:23.075Z,14.22
2022-11-28T10:39:54.169Z,14.27
2022-11-28T10:42:41.911Z,13.83
2022-11-28T10:45:34.332Z,13.76
2022-11-28T10:48:37.278Z,13.53
2022-11-28T10:51:24.227Z,13.62
2022-11-28T10:54:30.169Z,13.54
2022-11-28T10:57:17.780Z,13.60
2022-11-28T11:00:03.130Z,13.82
2022-11-28T11:02:51.435Z,13.93
2022-11-28T11:05:31.590Z,13.97
2022-11-28T11:08:26.386Z,13.97
2022-11-28T11:11:13.305Z,13.88
2022-11-28T11:14:04.965Z,13.90
2022-11-28T11:16:55.207Z,13.35
2022-11-28T11:19:28.698Z,13.33
2022-11-28T11:22:22.502Z,13.32
2022-11-28T11:25:14.538Z,13.21
2022-11-28T11:27:55.869Z,13.35
2022-11-28T11:30:40.655Z,13.36
2022-11-28T11:33:20.633Z,13.38
2022-11-28T11:35:51.978Z,13.45
2022-11-28T11:38:34.798Z,13.41
2022-11-28T11:41:43.436Z,13.44
2022-11-28T11:44:17.464Z,13.55
2022-11-28T11:46:56.114Z,13.66
2022-11-28T11:49:33.815Z,13.76
2022-11-28T12:02:08.176Z,13.93
2022-11-28T12:04:51.106Z,13.97
2022-11-28T12:07:34.133Z,13.88
2022-11-28T12:10:07.086Z,13.97
2022-11-28T12:12:39.527Z,14.03
2022-11-28T12:15:24.043Z,14.00
2022-11-28T13:22:02.633Z,13.77
2022-11-28T13:25:10.608Z,13.94
2022-11-28T13:27:47.454Z,13.94
2022-11-28T13:30:26.107Z,14.08
2022-11-28T13:33:21.478Z,13.91
2022-11-28T13:35:52.648Z,13.84
2022-11-28T13:38:50.482Z,13.81
2022-11-28T13:45:58.230Z,13.69
2022-11-28T13:53:12.739Z,13.60
2022-11-28T13:55:48.586Z,13.62
2022-11-28T13:58:30.877Z,13.70
2022-11-28T14:01:15.304Z,13.78
2022-11-28T14:04:02.887Z,13.56
2022-11-28T14:06:49.321Z,13.73
2022-11-28T14:10:05.452Z,13.69
2022-11-28T14:13:06.074Z,13.66
2022-11-28T14:15:43.539Z,13.81
2022-11-28T14:18:54.424Z,13.94
2022-11-28T14:21:32.024Z,13.75
2022-11-28T14:24:39.248Z,13.85
2022-11-28T14:27:23.402Z,13.89
2022-11-28T14:29:56.237Z,13.92
2022-11-28T14:32:44.666Z,13.92
2022-11-28T14:35:40.110Z,13.93
2022-11-28T14:38:35.113Z,13.99
2022-11-28T14:41:13.065Z,13.87
2022-11-28T14:43:50.233Z,13.81
2022-11-28T14:46:31.828Z,13.75
2022-11-28T14:49:02.987Z,13.87
2022-11-28T14:51:53.592Z,13.85
2022-11-28T14:54:32.573Z,13.91
2022-11-28T14:57:04.275Z,13.90
2022-11-28T14:59:39.392Z,13.98
2022-11-28T15:02:14.301Z,13.88
2022-11-28T15:05:01.004Z,13.84
2022-11-28T15:07:48.849Z,13.87
2022-11-28T15:10:44.967Z,13.74
2022-11-28T15:13:22.191Z,13.78
2022-11-28T15:15:55.287Z,13.94
2022-11-28T15:18:27.695Z,14.03
2022-11-28T15:21:04.435Z,14.00
2022-11-28T15:23:38.513Z,14.03
2022-11-28T15:26:17.547Z,13.96
2022-11-28T15:28:49.518Z,13.91
2022-11-28T15:31:25.262Z,13.92
2022-11-28T15:33:56.560Z,14.01
2022-11-28T15:36:30.390Z,13.91
2022-11-28T15:39:01.468Z,13.98
2022-11-28T15:41:33.214Z,14.00
2022-11-28T15:44:04.208Z,13.95
2022-11-28T15:46:36.674Z,14.02
2022-11-28T15:49:08.785Z,13.84
2022-11-28T15:51:39.817Z,13.97
2022-11-28T15:54:37.230Z,14.06
2022-11-28T15:57:09.464Z,14.05
2022-11-28T15:59:40.703Z,14.07
2022-11-28T16:02:32.078Z,14.22
2022-11-28T16:05:11.694Z,14.08
2022-11-28T16:07:46.807Z,14.15
2022-11-28T16:10:28.100Z,14.08
2022-11-28T16:13:04.494Z,14.08
2022-11-28T16:15:35.301Z,13.96
2022-11-28T16:18:06.515Z,13.97
2022-11-28T16:20:38.423Z,14.09
2022-11-28T16:23:32.100Z,14.01
2022-11-28T16:26:04.119Z,14.18
2022-11-28T16:28:38.367Z,14.07
2022-11-28T16:31:14.116Z,14.18
2022-11-28T16:33:46.986Z,14.20
2022-11-28T16:36:17.968Z,14.18
2022-11-28T16:38:50.246Z,14.17
2022-11-28T16:41:22.721Z,14.22
2022-11-28T16:44:23.788Z,14.15
2022-11-28T16:46:57.345Z,14.05
2022-11-28T16:49:45.570Z,14.10
2022-11-28T16:52:25.932Z,14.01
2022-11-28T16:55:00.700Z,14.06
2022-11-28T16:57:49.187Z,14.20
2022-11-28T17:00:21.554Z,14.17
2022-11-28T17:02:55.974Z,14.20
2022-11-28T17:05:26.802Z,14.24
2022-11-28T17:07:58.124Z,14.20
2022-11-28T17:10:29.380Z,14.28
2022-11-28T17:13:00.112Z,14.43
2022-11-28T17:15:30.851Z,14.33
2022-11-28T17:18:01.954Z,14.31
2022-11-28T17:20:32.994Z,14.31
2022-11-28T17:23:04.464Z,14.50
2022-11-28T17:25:35.401Z,14.31
2022-11-28T17:28:06.840Z,14.42
2022-11-28T17:30:38.062Z,14.48
2022-11-28T17:33:09.227Z,14.44
2022-11-28T17:35:44.193Z,14.54
2022-11-28T17:38:15.217Z,14.33
2022-11-28T17:40:48.215Z,14.47
2022-11-28T17:43:23.804Z,14.49
2022-11-28T17:45:54.575Z,14.50
2022-11-28T17:48:26.218Z,14.50
2022-11-28T17:50:57.527Z,14.51
2022-11-28T17:53:28.320Z,14.75
2022-11-28T17:56:01.433Z,14.92
2022-11-28T17:58:32.774Z,14.95
2022-11-28T18:01:03.802Z,15.08
2022-11-28T18:03:34.749Z,15.19
2022-11-28T18:06:06.938Z,15.00
2022-11-28T18:08:37.881Z,15.06
2022-11-28T18:11:11.689Z,15.20
2022-11-28T18:13:43.949Z,15.28
2022-11-28T18:16:16.462Z,15.65
2022-11-28T18:18:47.931Z,15.72
2022-11-28T18:21:19.135Z,15.59
2022-11-28T18:23:52.311Z,15.91
2022-11-28T18:26:25.457Z,15.87
2022-11-28T18:28:57.363Z,15.90
2022-11-28T18:31:30.530Z,16.00
2022-11-28T18:34:04.983Z,16.07
2022-11-28T18:36:40.563Z,16.29
2022-11-28T18:39:16.699Z,16.24
2022-11-28T18:41:48.061Z,16.35
2022-11-28T18:44:19.805Z,16.48
2022-11-28T18:46:51.897Z,16.70
2022-11-28T18:49:23.134Z,16.41
2022-11-28T18:51:54.012Z,16.74
2022-11-28T18:54:27.410Z,16.79
2022-11-28T18:56:58.951Z,16.84
2022-11-28T18:59:31.940Z,16.96
2022-11-28T19:02:03.277Z,17.03
2022-11-28T19:04:34.349Z,17.27
2022-11-28T19:07:05.621Z,17.17
2022-11-28T19:09:36.415Z,17.12
2022-11-28T19:12:08.739Z,17.02
2022-11-28T19:14:39.952Z,16.84
2022-11-28T19:17:13.469Z,16.86
2022-11-28T19:19:45.576Z,16.76
2022-11-28T19:22:16.743Z,16.72
2022-11-28T19:24:47.628Z,16.71
2022-11-28T19:27:18.779Z,16.77
2022-11-28T19:29:50.093Z,16.90
2022-11-28T19:32:20.820Z,16.80
2022-11-28T19:34:53.768Z,16.84
2022-11-28T19:37:24.546Z,16.75
2022-11-28T19:39:59.757Z,17.09
2022-11-28T19:42:35.531Z,17.40
2022-11-28T19:45:06.721Z,17.44
2022-11-28T19:47:37.762Z,18.00
2022-11-28T19:50:11.088Z,17.97
2022-11-28T19:52:42.433Z,17.94
2022-11-28T19:55:13.649Z,17.86
2022-11-28T19:57:44.664Z,17.38
2022-11-28T20:00:16.792Z,17.65
2022-11-28T20:02:51.829Z,17.90
2022-11-28T20:05:23.046Z,17.70
2022-11-28T20:07:58.349Z,18.14
2022-11-28T20:10:30.133Z,18.60
2022-11-28T20:13:01.296Z,18.79
2022-11-28T20:15:32.532Z,19.02
2022-11-28T20:18:04.070Z,18.99
2022-11-28T20:20:36.111Z,18.92
2022-11-28T20:23:07.026Z,19.38
2022-11-28T20:25:38.158Z,19.48
2022-11-28T20:28:09.516Z,19.41
2022-11-28T20:30:41.145Z,19.84
2022-11-28T20:33:12.112Z,20.27
2022-11-28T20:35:44.181Z,19.24
2022-11-28T20:38:14.884Z,19.53
2022-11-28T20:40:45.815Z,20.46
2022-11-28T20:43:16.517Z,20.06
2022-11-28T20:45:47.551Z,19.91
2022-11-28T20:48:18.778Z,20.42
2022-11-28T20:50:49.696Z,20.51
2022-11-28T20:53:26.454Z,20.44
2022-11-28T20:56:05.660Z,20.93
2022-11-28T20:58:36.760Z,21.36
2022-11-28T21:01:08.101Z,20.93
2022-11-28T21:03:38.830Z,22.43
2022-11-28T21:06:09.895Z,22.83
2022-11-28T21:08:41.623Z,21.61
2022-11-28T21:11:50.247Z,22.30
2022-11-28T21:14:13.391Z,22.56
2022-11-28T21:16:45.196Z,22.54
2022-11-28T21:19:16.033Z,21.69
2022-11-28T21:21:47.027Z,21.88
2022-11-28T21:24:17.795Z,21.42
2022-11-28T21:26:53.575Z,19.69
2022-11-28T21:29:26.486Z,20.89
2022-11-28T21:31:57.533Z,20.85
2022-11-28T21:34:28.565Z,20.75
2022-11-28T21:36:59.779Z,20.90
2022-11-28T21:39:30.625Z,20.67
2022-11-28T21:42:03.229Z,20.43
2022-11-28T21:44:34.012Z,21.01
2022-11-28T21:47:06.496Z,21.18
2022-11-28T21:49:37.486Z,21.10
2022-11-28T21:52:10.899Z,20.85
2022-11-28T21:54:42.152Z,21.31
2022-11-28T21:57:12.950Z,21.19
2022-11-28T21:59:44.466Z,21.25
2022-11-28T22:02:20.200Z,21.04
2022-11-28T22:04:51.378Z,20.81
2022-11-28T22:07:22.513Z,21.08
2022-11-28T22:09:55.621Z,21.22
2022-11-28T22:12:26.633Z,21.96
2022-11-28T22:14:57.546Z,22.52
2022-11-28T22:17:29.745Z,22.12
2022-11-28T22:20:01.097Z,21.21
2022-11-28T22:22:33.526Z,21.33
2022-11-28T22:25:04.525Z,21.78
2022-11-28T22:27:37.058Z,22.04
2022-11-28T22:30:11.145Z,21.91
2022-11-28T22:32:41.988Z,22.82
2022-11-28T22:35:12.712Z,22.46
2022-11-28T22:37:43.784Z,22.90
2022-11-28T22:40:15.713Z,21.90
2022-11-28T22:42:46.929Z,22.17
2022-11-28T22:45:17.789Z,22.19
2022-11-28T22:47:49.069Z,23.18
2022-11-28T22:50:20.235Z,22.91
2022-11-28T22:52:51.049Z,22.80
2022-11-28T22:55:22.147Z,22.56
2022-11-28T22:57:53.301Z,23.24
2022-11-28T23:00:24.599Z,23.12
2022-11-28T23:02:55.818Z,23.76
2022-11-28T23:05:27.049Z,23.18
2022-11-28T23:07:58.037Z,22.07
2022-11-28T23:10:30.224Z,22.17
2022-11-28T23:13:01.369Z,22.03
2022-11-28T23:15:32.403Z,21.97
2022-11-28T23:18:03.552Z,22.76
2022-11-28T23:20:34.513Z,23.53
2022-11-28T23:23:06.043Z,22.84
2022-11-28T23:25:38.225Z,22.70
2022-11-28T23:28:09.502Z,22.49
2022-11-28T23:30:40.585Z,22.45
2022-11-28T23:33:11.565Z,23.50
2022-11-28T23:35:42.605Z,24.07
2022-11-28T23:38:14.140Z,23.43
2022-11-28T23:40:45.052Z,23.20
2022-11-28T23:43:16.065Z,23.39
2022-11-28T23:45:46.838Z,23.48
2022-11-28T23:48:18.181Z,23.77
2022-11-28T23:50:49.537Z,24.15
2022-11-28T23:53:20.357Z,24.35
2022-11-28T23:55:51.273Z,24.91
2022-11-28T23:58:22.541Z,24.73
